^^
Saratoga-Weather Station Historical Data
Daily Summary for August 3, 2021 Units:  Metric    English   Both
Daily Weekly Monthly Yearly Custom
  High: Low: Average:
Temperature: 1.3 °C -0.3 °C 0.9 °C
Dew Point: 0 °C -1.4 °C -0.4 °C
Humidity: 94% 88% 91%
Wind Speed: 11.1km/h 0km/h 1.7km/h
Wind Gust: 16.1km/h - -
Wind- - West
Pressure: 1014.6 hPa 1012.2 hPa -
Precipitation: 0.0 mm    
Historical Graphs
 
 
Tabular Data for August 3, 2021
Time Temperature Dew Point Pressure Wind Wind Speed Wind Gust Humidity Rainfall Rate (Hourly) solar
00:03 1.1 °C -0.7 °C 1012.2 hPa Calm   1.6 km/h 88% 0.0 mm 0 W/m2
00:08 0.9 °C -0.9 °C 1012.2 hPa Calm     88% 0.0 mm 0 W/m2
00:13 0.9 °C -0.7 °C 1012.2 hPa West 1.4 km/h 1.6 km/h 89% 0.0 mm 0 W/m2
00:18 0.8 °C -0.8 °C 1012.2 hPa Calm     89% 0.0 mm 0 W/m2
00:23 0.7 °C -0.8 °C 1012.5 hPa Calm     90% 0.0 mm 0 W/m2
00:28 0.6 °C -0.7 °C 1012.5 hPa Calm     91% 0.0 mm 0 W/m2
00:33 0.6 °C -0.7 °C 1012.5 hPa Calm     91% 0.0 mm 0 W/m2
00:38 0.6 °C -0.5 °C 1012.5 hPa Calm   1.6 km/h 92% 0.0 mm 0 W/m2
00:43 0.6 °C -0.5 °C 1012.2 hPa Calm   3.2 km/h 92% 0.0 mm 0 W/m2
00:48 0.7 °C -0.5 °C 1012.5 hPa WNW 1.4 km/h 4.8 km/h 92% 0.0 mm 0 W/m2
00:53 0.8 °C -0.4 °C 1012.5 hPa Calm   1.6 km/h 92% 0.0 mm 0 W/m2
00:58 0.9 °C -0.3 °C 1012.5 hPa Calm     92% 0.0 mm 0 W/m2
01:03 1 °C -0.2 °C 1012.9 hPa Calm     92% 0.0 mm 0 W/m2
01:08 1 °C -0.3 °C 1012.9 hPa West 1.4 km/h 1.6 km/h 91% 0.0 mm 0 W/m2
01:13 1 °C -0.3 °C 1012.9 hPa Calm     91% 0.0 mm 0 W/m2
01:18 1.1 °C -0.2 °C 1012.9 hPa West 1.4 km/h 1.6 km/h 91% 0.0 mm 0 W/m2
01:23 1.1 °C -0.2 °C 1012.9 hPa Calm   3.2 km/h 91% 0.0 mm 0 W/m2
01:28 1.2 °C -0.1 °C 1012.9 hPa West 1.4 km/h 3.2 km/h 91% 0.0 mm 0 W/m2
01:33 1.2 °C -0.1 °C 1012.9 hPa West 1.4 km/h 1.6 km/h 91% 0.0 mm 0 W/m2
01:38 1.3 °C 0 °C 1012.9 hPa Calm   3.2 km/h 91% 0.0 mm 0 W/m2
01:43 1.2 °C -0.3 °C 1012.9 hPa WNW 3.2 km/h 4.8 km/h 90% 0.0 mm 0 W/m2
01:48 1.2 °C -0.3 °C 1012.9 hPa Calm   4.8 km/h 90% 0.0 mm 0 W/m2
01:53 1.2 °C -0.3 °C 1013.2 hPa West 3.2 km/h 11.3 km/h 90% 0.0 mm 0 W/m2
01:58 1.3 °C -0.2 °C 1013.2 hPa WNW 9.7 km/h 14.5 km/h 90% 0.0 mm 0 W/m2
02:03 1.3 °C -0.3 °C 1013.2 hPa West 3.2 km/h 6.4 km/h 89% 0.0 mm 0 W/m2
02:08 1.3 °C -0.3 °C 1013.2 hPa SW 3.2 km/h 12.9 km/h 89% 0.0 mm 0 W/m2
02:13 1.3 °C -0.3 °C 1013.2 hPa West 3.2 km/h 11.3 km/h 89% 0.0 mm 0 W/m2
02:18 1.2 °C -0.4 °C 1013.2 hPa West 1.4 km/h 4.8 km/h 89% 0.0 mm 0 W/m2
02:23 1.1 °C -0.5 °C 1013.2 hPa WSW 3.2 km/h 11.3 km/h 89% 0.0 mm 0 W/m2
02:28 1.1 °C -0.5 °C 1013.2 hPa West 1.4 km/h 3.2 km/h 89% 0.0 mm 0 W/m2
02:33 0.9 °C -0.7 °C 1013.2 hPa Calm   11.3 km/h 89% 0.0 mm 0 W/m2
02:38 0.8 °C -0.8 °C 1013.2 hPa Calm   1.6 km/h 89% 0.0 mm 0 W/m2
02:43 0.7 °C -0.8 °C 1013.2 hPa SW 1.4 km/h 1.6 km/h 90% 0.0 mm 0 W/m2
02:48 0.7 °C -0.8 °C 1013.2 hPa Calm   3.2 km/h 90% 0.0 mm 0 W/m2
02:53 0.6 °C -0.9 °C 1013.5 hPa Calm   3.2 km/h 90% 0.0 mm 0 W/m2
02:58 0.5 °C -0.9 °C 1013.2 hPa Calm   3.2 km/h 90% 0.0 mm 0 W/m2
03:03 0.4 °C -0.9 °C 1013.2 hPa Calm   1.6 km/h 91% 0.0 mm 0 W/m2
03:08 0.3 °C -1 °C 1013.5 hPa Calm   1.6 km/h 91% 0.0 mm 0 W/m2
03:13 0.3 °C -1 °C 1013.5 hPa Calm     91% 0.0 mm 0 W/m2
03:18 0.2 °C -1.1 °C 1013.5 hPa Calm     91% 0.0 mm 0 W/m2
03:23 0.1 °C -1.2 °C 1013.5 hPa Calm     91% 0.0 mm 0 W/m2
03:28 0.1 °C -1 °C 1013.5 hPa South 1.4 km/h 3.2 km/h 92% 0.0 mm 0 W/m2
03:33 0 °C -1.1 °C 1013.5 hPa Calm     92% 0.0 mm 0 W/m2
03:38 -0.1 °C -1.2 °C 1013.5 hPa Calm   3.2 km/h 92% 0.0 mm 0 W/m2
03:43 -0.2 °C -1.3 °C 1013.5 hPa Calm   1.6 km/h 92% 0.0 mm 0 W/m2
03:49 -0.2 °C -1.3 °C 1013.5 hPa SSE 1.4 km/h 3.2 km/h 92% 0.0 mm 0 W/m2
03:54 -0.3 °C -1.4 °C 1013.9 hPa SSE 1.4 km/h 3.2 km/h 92% 0.0 mm 0 W/m2
03:59 -0.3 °C -1.3 °C 1013.5 hPa SW 1.4 km/h 4.8 km/h 93% 0.0 mm 0 W/m2
04:04 -0.2 °C -1.2 °C 1013.5 hPa SE 3.2 km/h 4.8 km/h 93% 0.0 mm 0 W/m2
04:09 -0.2 °C -1.2 °C 1013.5 hPa Calm   3.2 km/h 93% 0.0 mm 0 W/m2
04:14 0 °C -1 °C 1013.5 hPa WSW 3.2 km/h 8 km/h 93% 0.0 mm 0 W/m2
04:19 0.2 °C -0.8 °C 1013.5 hPa Calm   3.2 km/h 93% 0.0 mm 0 W/m2
04:24 0.3 °C -0.6 °C 1013.5 hPa SW 1.4 km/h 11.3 km/h 94% 0.0 mm 0 W/m2
04:29 0.4 °C -0.6 °C 1013.5 hPa WSW 4.7 km/h 9.7 km/h 93% 0.0 mm 0 W/m2
04:34 0.6 °C -0.4 °C 1013.5 hPa WSW 1.4 km/h 9.7 km/h 93% 0.0 mm 0 W/m2
04:39 0.7 °C -0.3 °C 1013.5 hPa WSW 3.2 km/h 6.4 km/h 93% 0.0 mm 0 W/m2
04:44 0.7 °C -0.3 °C 1013.5 hPa WSW 3.2 km/h 11.3 km/h 93% 0.0 mm 0 W/m2
04:49 0.8 °C -0.2 °C 1013.5 hPa Calm   6.4 km/h 93% 0.0 mm 0 W/m2
04:54 0.8 °C -0.4 °C 1013.5 hPa West 4.7 km/h 16.1 km/h 92% 0.0 mm 0 W/m2
04:59 0.9 °C -0.3 °C 1013.5 hPa WSW 4.7 km/h 14.5 km/h 92% 0.0 mm 0 W/m2
05:04 0.9 °C -0.3 °C 1013.5 hPa WNW 3.2 km/h 6.4 km/h 92% 0.0 mm 0 W/m2
05:09 0.9 °C -0.3 °C 1013.5 hPa WNW 6.4 km/h 14.5 km/h 92% 0.0 mm 0 W/m2
05:14 0.9 °C -0.3 °C 1013.5 hPa WNW 4.7 km/h 9.7 km/h 92% 0.0 mm 0 W/m2
05:19 0.9 °C -0.3 °C 1013.9 hPa West 6.4 km/h 9.7 km/h 92% 0.0 mm 0 W/m2
05:24 0.9 °C -0.3 °C 1013.9 hPa WNW 11.1 km/h 14.5 km/h 92% 0.0 mm 0 W/m2
05:29 1 °C -0.2 °C 1013.9 hPa West 4.7 km/h 11.3 km/h 92% 0.0 mm 0 W/m2
05:34 1.1 °C -0.1 °C 1013.9 hPa WNW 4.7 km/h 14.5 km/h 92% 0.0 mm 0 W/m2
05:39 1.1 °C -0.2 °C 1013.5 hPa Calm   8 km/h 91% 0.0 mm 0 W/m2
05:44 1.2 °C -0.1 °C 1013.9 hPa West 1.4 km/h 8 km/h 91% 0.0 mm 0 W/m2
05:49 1.2 °C -0.1 °C 1013.9 hPa WNW 3.2 km/h 6.4 km/h 91% 0.0 mm 0 W/m2
05:54 1.2 °C -0.1 °C 1013.9 hPa Calm   3.2 km/h 91% 0.0 mm 0 W/m2
05:59 1.2 °C -0.1 °C 1013.9 hPa WNW 3.2 km/h 6.4 km/h 91% 0.0 mm 0 W/m2
06:04 1.3 °C 0 °C 1013.9 hPa NNW 1.4 km/h 3.2 km/h 91% 0.0 mm 0 W/m2
06:09 1.3 °C 0 °C 1013.9 hPa NW 7.9 km/h 8 km/h 91% 0.0 mm 0 W/m2
06:14 1.3 °C 0 °C 1013.9 hPa WNW 4.7 km/h 8 km/h 91% 0.0 mm 0 W/m2
06:19 1.3 °C -0.2 °C 1013.9 hPa Calm   3.2 km/h 90% 0.0 mm 0 W/m2
06:24 1.3 °C -0.2 °C 1013.9 hPa WSW 1.4 km/h 4.8 km/h 90% 0.0 mm 0 W/m2
06:29 1.3 °C -0.2 °C 1013.9 hPa Calm   8 km/h 90% 0.0 mm 0 W/m2
06:34 1.3 °C -0.2 °C 1013.9 hPa West 1.4 km/h 3.2 km/h 90% 0.0 mm 0 W/m2
06:39 1.3 °C -0.2 °C 1013.9 hPa Calm   1.6 km/h 90% 0.0 mm 0 W/m2
06:44 1.3 °C 0 °C 1013.9 hPa West 1.4 km/h 6.4 km/h 91% 0.0 mm 0 W/m2
06:49 1.3 °C 0 °C 1013.9 hPa Calm   3.2 km/h 91% 0.0 mm 0 W/m2
06:54 1.3 °C 0 °C 1013.9 hPa West 4.7 km/h 9.7 km/h 91% 0.0 mm 0 W/m2
06:59 1.3 °C 0 °C 1013.9 hPa West 6.4 km/h 6.4 km/h 91% 0.0 mm 0 W/m2
07:04 1.3 °C 0 °C 1013.9 hPa Calm     91% 0.0 mm 0 W/m2
07:09 1.2 °C -0.1 °C 1014.2 hPa Calm   1.6 km/h 91% 0.0 mm 0 W/m2
07:14 1.3 °C 0 °C 1014.2 hPa North 1.4 km/h 4.8 km/h 91% 0.0 mm 0 W/m2
07:19 1.2 °C -0.1 °C 1014.6 hPa WSW 1.4 km/h 3.2 km/h 91% 0.0 mm 0 W/m2
07:24 1.3 °C -0.2 °C 1014.6 hPa WNW 1.4 km/h 4.8 km/h 90% 0.0 mm 0 W/m2
07:29 1.3 °C 0 °C 1014.6 hPa WNW 3.2 km/h 4.8 km/h 91% 0.0 mm 0 W/m2
07:34 1.3 °C 0 °C 1014.6 hPa Calm   4.8 km/h 91% 0.0 mm 0 W/m2
07:39 1.3 °C 0 °C 1014.6 hPa Calm   3.2 km/h 91% 0.0 mm 0 W/m2
07:44 1.3 °C 0 °C 1014.6 hPa Calm   3.2 km/h 91% 0.0 mm 0 W/m2
07:49 1.3 °C 0 °C 1014.6 hPa Calm     91% 0.0 mm 0 W/m2
07:54 1.3 °C 0 °C 1014.6 hPa WNW 3.2 km/h 6.4 km/h 91% 0.0 mm 0 W/m2
07:59 1.3 °C 0 °C 1014.6 hPa WNW 1.4 km/h 6.4 km/h 91% 0.0 mm 0 W/m2
Juneau County Weather
Compliments of Weather Underground - 2 mb